Time;durP1;ratioP1;P1;durP2;ratioP2;P2;SDS_P1;SDS_P2;PMS_P1;PMS_P2;Temp;Humidity;BMP_temperature;BMP_pressure;BME280_temperature;BME280_humidity;BME280_pressure;Samples;Min_cycle;Max_cycle;Signal;HPM_P1;HPM_P2
2022/12/30 00:01:15;;;;;;;8.40;1.47;;;;;;;9.42;82.97;100320.75;5010215;28;20449;-69
2022/12/30 00:03:42;;;;;;;4.30;0.60;;;;;;;9.40;83.22;100325.66;5007935;28;20560;-70
2022/12/30 00:06:16;;;;;;;5.97;0.90;;;;;;;9.42;83.58;100323.44;5013716;28;20546;-70
2022/12/30 00:08:49;;;;;;;4.70;0.80;;;;;;;9.43;83.30;100336.69;5014185;28;20961;-71
2022/12/30 00:11:18;;;;;;;5.20;1.10;;;;;;;9.46;83.77;100336.06;5016149;28;20800;-72
2022/12/30 00:33:30;;;;;;;6.50;1.20;;;;;;;9.50;83.71;100363.31;5018297;28;20873;-69
2022/12/30 00:35:58;;;;;;;5.53;1.20;;;;;;;9.51;81.36;100360.31;5012911;28;20802;-69
2022/12/30 00:38:24;;;;;;;4.83;0.80;;;;;;;9.59;81.07;100366.91;5011212;28;20934;-70
2022/12/30 00:43:35;;;;;;;4.87;0.80;;;;;;;9.58;79.79;100368.03;5013883;28;20444;-69
2022/12/30 00:46:02;;;;;;;5.17;1.37;;;;;;;9.56;79.50;100372.91;5012502;28;20939;-69
2022/12/30 00:56:44;;;;;;;4.20;0.50;;;;;;;9.51;78.39;100381.13;5019658;28;20498;-68
2022/12/30 00:59:12;;;;;;;4.30;0.63;;;;;;;9.41;78.78;100373.22;5017277;28;20483;-68
2022/12/30 01:01:38;;;;;;;4.57;0.83;;;;;;;9.45;77.99;100374.22;5014387;28;20439;-69
2022/12/30 01:04:06;;;;;;;4.90;1.00;;;;;;;9.35;78.90;100386.81;5014942;28;20460;-69
2022/12/30 01:06:33;;;;;;;3.80;0.50;;;;;;;9.34;77.44;100387.94;5013542;28;20443;-68
2022/12/30 01:09:00;;;;;;;4.97;0.80;;;;;;;9.29;77.91;100406.13;4997840;28;20557;-69
2022/12/30 01:11:26;;;;;;;4.80;0.77;;;;;;;9.21;79.00;100407.63;5010091;28;20550;-69
2022/12/30 01:13:53;;;;;;;7.30;0.97;;;;;;;9.20;79.11;100406.00;5019956;28;20451;-69
2022/12/30 01:16:20;;;;;;;4.90;0.83;;;;;;;9.27;77.97;100413.72;5016541;28;20464;-69
2022/12/30 01:18:46;;;;;;;4.87;0.93;;;;;;;9.12;79.71;100427.47;5011897;28;20498;-70
2022/12/30 01:21:14;;;;;;;4.20;0.67;;;;;;;9.03;79.34;100430.03;5014460;28;20905;-69
2022/12/30 01:23:41;;;;;;;6.73;1.10;;;;;;;9.04;79.64;100429.78;5013191;28;20535;-69
2022/12/30 01:26:08;;;;;;;7.57;1.07;;;;;;;9.08;79.31;100433.50;5012637;28;20463;-69
2022/12/30 01:28:36;;;;;;;7.70;0.70;;;;;;;9.10;78.80;100438.59;5013010;28;20468;-68
2022/12/30 01:31:06;;;;;;;4.60;0.83;;;;;;;9.05;79.72;100449.47;5016933;28;20463;-69
2022/12/30 01:33:33;;;;;;;4.77;1.10;;;;;;;8.93;80.85;100451.81;5024048;28;20463;-69
2022/12/30 01:35:59;;;;;;;7.93;0.70;;;;;;;8.97;80.44;100452.84;5013016;28;20440;-68
2022/12/30 01:38:28;;;;;;;4.10;0.70;;;;;;;8.87;82.18;100453.00;5015031;28;20515;-70
2022/12/30 01:40:55;;;;;;;4.63;0.63;;;;;;;8.90;81.00;100461.34;5015154;28;20495;-68
2022/12/30 01:43:40;;;;;;;8.43;1.17;;;;;;;8.86;81.63;100467.63;5030307;28;20449;-69
2022/12/30 01:46:07;;;;;;;6.63;0.87;;;;;;;8.87;81.18;100464.59;5024128;28;20456;-70
2022/12/30 01:48:34;;;;;;;3.97;0.60;;;;;;;8.88;81.48;100468.09;5012143;28;20585;-69
2022/12/30 01:51:04;;;;;;;9.13;1.10;;;;;;;8.87;81.83;100475.41;5015244;28;20543;-69
2022/12/30 01:53:34;;;;;;;4.07;0.80;;;;;;;8.82;81.87;100484.41;5029177;28;20505;-69
2022/12/30 01:56:06;;;;;;;8.30;1.33;;;;;;;8.84;82.08;100482.19;5020553;28;20478;-68
2022/12/30 01:58:35;;;;;;;8.57;1.47;;;;;;;8.79;82.30;100487.66;5017297;28;20515;-69
2022/12/30 02:01:02;;;;;;;5.20;0.70;;;;;;;8.83;81.65;100496.78;5021595;28;20842;-69
2022/12/30 02:03:34;;;;;;;4.40;0.70;;;;;;;8.70;82.40;100511.03;5014385;28;20551;-68
2022/12/30 02:06:02;;;;;;;5.40;1.00;;;;;;;8.65;83.17;100505.69;5005301;28;20843;-71
2022/12/30 02:08:33;;;;;;;4.00;0.90;;;;;;;8.62;83.18;100517.06;5019115;28;20563;-69
2022/12/30 02:11:00;;;;;;;6.33;0.90;;;;;;;8.62;84.17;100516.25;5016075;28;20519;-69
2022/12/30 02:13:27;;;;;;;7.83;1.10;;;;;;;8.70;83.17;100521.00;5019090;28;20459;-68
2022/12/30 02:16:19;;;;;;;5.20;1.07;;;;;;;8.68;82.58;100518.63;5015527;28;20468;-68
2022/12/30 02:18:58;;;;;;;4.53;0.97;;;;;;;8.72;82.17;100516.94;5016032;28;20592;-69
2022/12/30 02:21:49;;;;;;;5.30;1.00;;;;;;;8.68;82.41;100532.13;5026459;28;20518;-68
2022/12/30 02:25:01;;;;;;;7.43;1.00;;;;;;;8.68;82.86;100529.41;5017255;28;20836;-68
2022/12/30 02:27:54;;;;;;;9.27;0.93;;;;;;;8.67;82.95;100527.78;5032741;28;20487;-69
2022/12/30 02:30:23;;;;;;;7.27;1.03;;;;;;;8.76;81.23;100528.75;5017042;28;20439;-68
2022/12/30 02:33:05;;;;;;;6.17;0.80;;;;;;;8.67;81.68;100524.28;5022885;28;20479;-69
2022/12/30 02:35:41;;;;;;;6.30;0.63;;;;;;;8.66;82.12;100528.88;5015245;28;20458;-72
2022/12/30 02:38:19;;;;;;;5.60;1.00;;;;;;;8.60;83.17;100532.75;5015927;28;20494;-69
2022/12/30 02:46:30;;;;;;;4.50;0.80;;;;;;;8.57;82.88;100527.91;5021864;28;20462;-67
2022/12/30 02:49:00;;;;;;;4.30;0.70;;;;;;;8.60;82.56;100538.16;5016971;28;20463;-68
2022/12/30 02:54:13;;;;;;;11.07;1.20;;;;;;;8.63;81.76;100539.47;5030497;28;20450;-69
2022/12/30 02:56:48;;;;;;;8.13;0.87;;;;;;;8.62;82.39;100529.75;5015465;28;20479;-68
2022/12/30 03:07:37;;;;;;;4.50;0.93;;;;;;;8.44;82.45;100542.13;5055980;23;20498;-74
2022/12/30 03:13:06;;;;;;;4.60;0.80;;;;;;;8.35;83.24;100542.72;5035249;28;20490;-74
2022/12/30 03:15:40;;;;;;;4.77;1.03;;;;;;;8.28;85.51;100550.38;5034417;28;20497;-74
2022/12/30 03:18:08;;;;;;;6.90;1.30;;;;;;;8.28;83.15;100546.88;5035147;28;20466;-71
2022/12/30 03:20:37;;;;;;;8.53;0.87;;;;;;;8.28;83.52;100544.97;5033769;28;20487;-71
2022/12/30 03:28:39;;;;;;;4.80;1.10;;;;;;;8.29;83.62;100551.16;5034743;28;20406;-72
2022/12/30 03:31:11;;;;;;;5.00;0.90;;;;;;;8.24;82.66;100545.84;5033515;28;21008;-72
2022/12/30 03:33:38;;;;;;;4.93;1.07;;;;;;;8.17;84.02;100559.63;5031505;28;20462;-72
2022/12/30 03:36:11;;;;;;;5.00;0.90;;;;;;;8.13;84.58;100557.81;5033690;28;20479;-72
2022/12/30 03:38:43;;;;;;;6.37;1.13;;;;;;;8.05;84.13;100561.91;5035179;28;20420;-72
2022/12/30 03:41:12;;;;;;;6.83;1.00;;;;;;;8.06;84.57;100568.94;5033547;28;20842;-73
2022/12/30 03:43:41;;;;;;;6.77;0.93;;;;;;;8.10;83.52;100572.66;5033995;28;20471;-73
2022/12/30 03:46:08;;;;;;;5.27;0.90;;;;;;;8.10;83.21;100572.66;5034103;28;20485;-72
2022/12/30 03:48:34;;;;;;;4.50;0.83;;;;;;;8.11;84.11;100574.28;5034219;28;20467;-72
2022/12/30 03:51:01;;;;;;;5.20;1.03;;;;;;;8.14;84.21;100575.59;5027922;28;20475;-73
2022/12/30 03:53:28;;;;;;;6.67;0.97;;;;;;;8.15;82.72;100580.72;5034527;28;20466;-74
2022/12/30 03:55:56;;;;;;;7.40;1.03;;;;;;;8.15;83.96;100585.31;5033279;28;20498;-73
2022/12/30 03:58:22;;;;;;;6.00;1.10;;;;;;;8.23;83.27;100590.06;5033919;28;20439;-72
2022/12/30 04:00:50;;;;;;;6.33;0.87;;;;;;;8.22;82.40;100583.88;5033099;28;20493;-75
2022/12/30 04:03:17;;;;;;;4.20;0.80;;;;;;;8.11;83.06;100592.38;5033814;28;20443;-74
2022/12/30 04:05:43;;;;;;;6.80;1.43;;;;;;;8.12;83.95;100583.19;5034116;28;20474;-74
2022/12/30 04:08:10;;;;;;;6.97;1.10;;;;;;;8.17;82.49;100585.81;5032353;28;20454;-73
2022/12/30 04:10:36;;;;;;;7.30;1.10;;;;;;;8.15;83.16;100588.81;5033103;28;20819;-73
2022/12/30 04:13:04;;;;;;;4.70;0.80;;;;;;;8.08;82.80;100593.72;5032763;28;20467;-73
2022/12/30 04:15:31;;;;;;;5.00;0.93;;;;;;;8.02;83.66;100590.28;5034051;28;20477;-73
2022/12/30 04:17:57;;;;;;;6.60;0.97;;;;;;;7.99;83.77;100584.63;5032605;28;20467;-73
2022/12/30 04:20:24;;;;;;;4.97;0.90;;;;;;;7.99;83.14;100585.44;5033355;28;20525;-73
2022/12/30 04:22:50;;;;;;;4.63;0.80;;;;;;;7.97;83.75;100597.59;5032831;28;20467;-73
2022/12/30 04:25:17;;;;;;;6.60;1.33;;;;;;;7.88;84.42;100594.72;5017944;28;20446;-72
2022/12/30 04:27:44;;;;;;;6.20;0.70;;;;;;;7.88;84.21;100599.28;5033305;28;20447;-73
2022/12/30 04:30:13;;;;;;;5.03;1.27;;;;;;;7.84;84.46;100602.56;5033760;28;20527;-74
2022/12/30 04:32:40;;;;;;;4.97;1.10;;;;;;;7.77;84.68;100604.78;5015680;28;20503;-73
2022/12/30 04:35:08;;;;;;;4.50;0.63;;;;;;;7.75;84.25;100615.03;5018442;28;20448;-72
2022/12/30 04:37:34;;;;;;;4.70;0.73;;;;;;;7.77;84.55;100617.44;5025105;28;20450;-74
2022/12/30 04:40:01;;;;;;;6.27;1.20;;;;;;;7.75;83.92;100609.66;5032464;28;20871;-73
2022/12/30 04:42:27;;;;;;;6.40;1.00;;;;;;;7.74;84.13;100612.59;5033530;28;20498;-73
2022/12/30 04:44:54;;;;;;;4.83;0.90;;;;;;;7.74;84.08;100612.59;5028105;28;20550;-74
2022/12/30 04:47:22;;;;;;;4.57;0.83;;;;;;;7.74;83.93;100615.31;5022626;28;20483;-73
2022/12/30 04:49:48;;;;;;;7.40;1.43;;;;;;;7.69;85.23;100626.94;5033265;28;20526;-73
2022/12/30 04:52:15;;;;;;;7.50;1.30;;;;;;;7.68;84.67;100616.44;5027581;28;20460;-74
2022/12/30 04:54:42;;;;;;;9.77;1.13;;;;;;;7.65;85.29;100625.88;5023856;28;20486;-73
2022/12/30 04:57:08;;;;;;;4.37;0.87;;;;;;;7.65;85.38;100636.66;5032012;28;20906;-75
2022/12/30 04:59:35;;;;;;;5.03;1.00;;;;;;;7.65;84.00;100639.34;5031345;28;20980;-74
2022/12/30 05:02:01;;;;;;;8.80;1.30;;;;;;;7.61;84.39;100634.81;5032037;28;20521;-73
2022/12/30 05:04:29;;;;;;;4.37;0.80;;;;;;;7.58;85.13;100638.88;5028542;28;20982;-73
2022/12/30 05:06:56;;;;;;;4.50;0.93;;;;;;;7.53;85.87;100653.19;5031939;28;20487;-73
2022/12/30 05:09:23;;;;;;;8.37;1.00;;;;;;;7.48;86.42;100655.09;5032680;28;20467;-73
2022/12/30 05:11:49;;;;;;;6.87;1.30;;;;;;;7.43;86.18;100664.03;5033494;28;20620;-73
2022/12/30 05:14:16;;;;;;;4.73;0.80;;;;;;;7.41;85.86;100657.31;5031741;28;20459;-72
2022/12/30 05:16:43;;;;;;;4.20;0.97;;;;;;;7.44;84.93;100665.66;5031636;28;20483;-73
2022/12/30 05:19:09;;;;;;;4.00;0.73;;;;;;;7.43;85.08;100663.22;5033003;28;20569;-74
2022/12/30 05:21:37;;;;;;;5.33;1.10;;;;;;;7.41;85.85;100660.00;5033151;28;20574;-73
2022/12/30 05:26:48;;;;;;;8.13;1.03;;;;;;;7.33;85.39;100677.56;5034907;28;20482;-73
2022/12/30 05:29:15;;;;;;;6.27;1.17;;;;;;;7.29;85.73;100689.97;5036837;28;20472;-73
2022/12/30 05:31:42;;;;;;;6.17;1.23;;;;;;;7.31;86.32;100688.63;5034270;28;20459;-73
2022/12/30 05:34:09;;;;;;;7.00;1.03;;;;;;;7.31;86.25;100687.81;5030909;28;20499;-74
2022/12/30 05:36:37;;;;;;;10.03;1.23;;;;;;;7.31;86.40;100688.63;5035141;28;20825;-73
2022/12/30 05:39:04;;;;;;;5.07;1.00;;;;;;;7.30;86.05;100697.78;5036322;28;20495;-74
2022/12/30 05:41:31;;;;;;;4.83;1.20;;;;;;;7.31;85.76;100704.78;5036687;28;20577;-73
2022/12/30 05:43:58;;;;;;;5.23;0.97;;;;;;;7.31;85.38;100709.38;5036186;28;20955;-73
2022/12/30 05:46:24;;;;;;;5.00;1.00;;;;;;;7.27;85.65;100702.91;5035278;28;21045;-73
2022/12/30 05:48:51;;;;;;;9.10;1.43;;;;;;;7.16;87.30;100707.53;5036359;28;20541;-73
2022/12/30 05:51:18;;;;;;;13.13;1.40;;;;;;;7.14;86.89;100712.38;5035207;28;20473;-73
2022/12/30 05:53:45;;;;;;;7.30;1.00;;;;;;;7.12;86.04;100708.34;5036833;28;20451;-74
2022/12/30 05:56:12;;;;;;;7.17;0.90;;;;;;;7.16;85.82;100714.78;5035657;28;21048;-74
2022/12/30 05:58:39;;;;;;;4.40;0.87;;;;;;;7.18;85.97;100723.44;5035091;28;20833;-74
2022/12/30 06:01:06;;;;;;;4.30;0.73;;;;;;;7.19;85.85;100733.13;5036634;28;20501;-74
2022/12/30 06:03:32;;;;;;;4.73;0.87;;;;;;;7.18;85.80;100743.09;5035514;28;20546;-74
2022/12/30 06:06:00;;;;;;;8.13;1.17;;;;;;;7.14;86.20;100746.59;5035985;28;21083;-74
2022/12/30 06:08:28;;;;;;;7.63;0.90;;;;;;;7.14;85.65;100746.59;5034508;28;20546;-73
2022/12/30 06:10:56;;;;;;;7.23;0.90;;;;;;;7.10;86.83;100751.72;5036254;28;20622;-73
2022/12/30 06:13:22;;;;;;;6.00;1.30;;;;;;;7.11;86.25;100757.91;5035248;28;20455;-74
2022/12/30 06:15:49;;;;;;;4.50;0.90;;;;;;;7.09;85.30;100763.59;5034991;28;20578;-73
2022/12/30 06:18:16;;;;;;;4.57;0.97;;;;;;;7.08;85.85;100760.09;5035791;28;21035;-73
2022/12/30 06:20:43;;;;;;;7.77;1.23;;;;;;;7.06;86.90;100767.63;5034344;28;20479;-73
2022/12/30 06:23:10;;;;;;;5.07;1.07;;;;;;;7.03;86.27;100773.53;5036029;28;20458;-73
2022/12/30 06:25:37;;;;;;;4.93;1.00;;;;;;;6.98;86.38;100778.13;5034805;28;20515;-72
2022/12/30 06:28:05;;;;;;;11.93;1.17;;;;;;;6.98;86.72;100776.25;5035216;28;20492;-73
2022/12/30 06:30:32;;;;;;;4.90;0.90;;;;;;;6.95;87.18;100775.97;5035956;28;20950;-73
2022/12/30 06:32:59;;;;;;;6.57;1.70;;;;;;;6.86;86.99;100769.53;5034273;28;20554;-73
2022/12/30 06:35:25;;;;;;;6.10;0.93;;;;;;;6.82;88.02;100772.78;5031506;28;20456;-74
2022/12/30 06:37:52;;;;;;;8.53;1.20;;;;;;;6.80;87.50;100777.63;5034712;28;20483;-67
2022/12/30 06:40:19;;;;;;;4.30;0.70;;;;;;;6.79;87.95;100784.09;5035316;28;20451;-70
2022/12/30 06:42:45;;;;;;;6.13;1.37;;;;;;;6.78;87.42;100784.38;5034767;28;20459;-69
2022/12/30 06:45:13;;;;;;;5.97;1.40;;;;;;;6.73;88.01;100776.28;5034168;28;20538;-68
2022/12/30 06:47:40;;;;;;;4.10;0.77;;;;;;;6.69;87.51;100784.09;5034845;28;21007;-68
2022/12/30 06:50:07;;;;;;;4.23;0.80;;;;;;;6.69;87.66;100789.50;5033920;28;20534;-69
2022/12/30 06:52:34;;;;;;;5.00;0.97;;;;;;;6.66;88.72;100784.63;5019848;28;20495;-70
2022/12/30 06:55:00;;;;;;;4.33;0.80;;;;;;;6.65;88.28;100788.41;5019550;28;20459;-70
2022/12/30 06:57:27;;;;;;;10.33;1.17;;;;;;;6.61;87.83;100792.72;5033613;28;20865;-70
2022/12/30 06:59:54;;;;;;;6.40;0.97;;;;;;;6.61;87.61;100789.22;5034362;28;20463;-69
2022/12/30 07:02:21;;;;;;;4.87;0.90;;;;;;;6.61;88.16;100794.59;5035160;28;20583;-68
2022/12/30 07:04:48;;;;;;;4.10;0.70;;;;;;;6.53;88.40;100794.06;5034169;28;20549;-70
2022/12/30 07:07:15;;;;;;;8.23;1.10;;;;;;;6.42;88.68;100797.00;5033211;28;20570;-68
2022/12/30 07:09:41;;;;;;;6.63;0.80;;;;;;;6.39;88.61;100800.25;5034966;28;20447;-68
2022/12/30 07:12:08;;;;;;;8.13;0.80;;;;;;;6.36;90.06;100811.53;5034338;28;20491;-69
2022/12/30 07:14:35;;;;;;;4.30;0.97;;;;;;;6.24;90.24;100814.47;5028783;28;20526;-69
2022/12/30 07:17:01;;;;;;;17.43;1.63;;;;;;;6.27;89.69;100817.44;5034060;28;20617;-68
2022/12/30 07:19:29;;;;;;;6.17;1.00;;;;;;;6.29;90.42;100828.75;5034041;28;20469;-69
2022/12/30 07:21:56;;;;;;;4.10;0.67;;;;;;;6.29;90.43;100825.25;5034825;28;20573;-68
2022/12/30 07:24:23;;;;;;;4.33;1.00;;;;;;;6.31;90.08;100833.84;5024975;28;20550;-70
2022/12/30 07:26:49;;;;;;;4.40;1.00;;;;;;;6.31;90.21;100840.03;5032734;28;20917;-71
2022/12/30 07:29:16;;;;;;;5.53;1.07;;;;;;;6.28;90.28;100843.25;5033674;28;20458;-69
2022/12/30 07:31:43;;;;;;;4.53;0.93;;;;;;;6.26;89.50;100833.84;5034732;28;20450;-66
2022/12/30 07:34:10;;;;;;;6.20;1.23;;;;;;;6.26;89.98;100837.34;5033356;28;20461;-67
2022/12/30 07:36:38;;;;;;;7.10;0.87;;;;;;;6.24;89.15;100844.88;5033987;28;20479;-66
2022/12/30 07:39:06;;;;;;;5.37;1.37;;;;;;;6.23;90.09;100847.81;5023545;28;20554;-65
2022/12/30 07:41:33;;;;;;;8.43;0.90;;;;;;;6.26;89.50;100841.91;5033977;28;20541;-69
2022/12/30 07:44:00;;;;;;;4.73;0.90;;;;;;;6.26;90.24;100847.28;5034624;28;20525;-70
2022/12/30 07:46:26;;;;;;;4.67;0.93;;;;;;;6.24;90.33;100852.94;5032926;28;20605;-69
2022/12/30 07:48:53;;;;;;;6.77;1.37;;;;;;;6.25;89.81;100859.94;5032044;28;20549;-69
2022/12/30 07:51:19;;;;;;;6.63;1.30;;;;;;;6.26;89.28;100858.84;5034160;28;20530;-71
2022/12/30 07:53:47;;;;;;;5.13;1.17;;;;;;;6.30;88.80;100857.25;5033855;28;20439;-70
2022/12/30 07:56:14;;;;;;;5.40;1.00;;;;;;;6.31;90.15;100858.88;5033798;28;20479;-73
2022/12/30 07:58:41;;;;;;;5.90;1.30;;;;;;;6.36;88.95;100859.94;5033685;28;20526;-72
2022/12/30 08:01:10;;;;;;;4.40;0.90;;;;;;;6.41;89.05;100862.66;5034016;28;20581;-70
2022/12/30 08:03:37;;;;;;;4.33;1.03;;;;;;;6.43;89.01;100864.00;5033893;28;20469;-70
2022/12/30 08:06:05;;;;;;;5.13;1.20;;;;;;;6.45;89.13;100869.13;5033009;28;20549;-69
2022/12/30 08:08:32;;;;;;;5.40;0.97;;;;;;;6.42;89.80;100875.00;5031981;28;20542;-68
2022/12/30 08:11:00;;;;;;;6.57;1.17;;;;;;;6.43;89.53;100877.47;5033275;28;20554;-68
2022/12/30 08:13:27;;;;;;;4.73;1.10;;;;;;;6.49;88.42;100883.66;5034009;28;20479;-68
2022/12/30 08:15:54;;;;;;;6.33;1.50;;;;;;;6.51;88.50;100878.84;5033239;28;20486;-70
2022/12/30 08:18:20;;;;;;;6.70;1.40;;;;;;;6.55;88.56;100875.34;5032837;28;20478;-68
2022/12/30 08:20:47;;;;;;;11.43;1.33;;;;;;;6.49;88.60;100876.38;5032240;28;20459;-70
2022/12/30 08:23:13;;;;;;;4.33;0.90;;;;;;;6.50;88.89;100878.00;5033453;28;20450;-70
2022/12/30 08:25:40;;;;;;;6.27;1.10;;;;;;;6.55;88.74;100885.28;5032031;28;20849;-71
2022/12/30 08:28:08;;;;;;;9.33;1.27;;;;;;;6.56;89.02;100892.28;5032496;28;20447;-69
2022/12/30 08:30:34;;;;;;;5.93;1.10;;;;;;;6.62;88.42;100904.66;5033766;28;20537;-69
2022/12/30 08:33:01;;;;;;;5.77;1.10;;;;;;;6.67;87.47;100893.91;5032556;28;20460;-69
2022/12/30 08:35:28;;;;;;;5.63;1.43;;;;;;;6.76;88.76;100902.25;5032919;28;20898;-68
2022/12/30 08:37:54;;;;;;;3.90;0.73;;;;;;;6.80;88.00;100904.16;5032346;28;20845;-68
2022/12/30 08:40:21;;;;;;;6.57;0.83;;;;;;;6.83;88.18;100900.13;5032861;28;20451;-69
2022/12/30 08:42:47;;;;;;;4.20;0.97;;;;;;;6.91;87.71;100896.09;5032222;28;20999;-68
2022/12/30 08:45:15;;;;;;;5.90;1.03;;;;;;;6.93;88.19;100888.56;5032755;28;20545;-73
2022/12/30 08:47:42;;;;;;;7.07;1.20;;;;;;;6.91;88.30;100893.41;5028849;28;21001;-69
2022/12/30 08:50:09;;;;;;;8.13;0.97;;;;;;;6.99;88.06;100895.53;5019885;28;20474;-70
2022/12/30 08:52:36;;;;;;;5.50;0.80;;;;;;;7.04;87.67;100903.66;5032183;28;20495;-71
2022/12/30 08:55:03;;;;;;;4.63;1.13;;;;;;;7.07;86.77;100903.88;5033050;28;20466;-69
2022/12/30 08:57:30;;;;;;;9.03;1.27;;;;;;;7.18;85.94;100898.53;5032688;28;20518;-68
2022/12/30 08:59:57;;;;;;;4.30;0.80;;;;;;;7.26;85.93;100900.66;5028470;28;20960;-69
2022/12/30 09:02:25;;;;;;;4.60;0.90;;;;;;;7.34;84.82;100898.22;5032636;28;20929;-69
2022/12/30 09:04:51;;;;;;;7.50;1.10;;;;;;;7.44;84.99;100904.69;5032166;28;20444;-70
2022/12/30 09:07:18;;;;;;;6.33;0.90;;;;;;;7.49;84.07;100902.00;5055594;22;20494;-70
2022/12/30 09:09:44;;;;;;;8.80;1.10;;;;;;;7.54;84.02;100899.28;5031094;28;20889;-70
2022/12/30 09:12:11;;;;;;;7.27;0.73;;;;;;;7.62;83.25;100906.81;5032193;28;20465;-71
2022/12/30 09:14:37;;;;;;;4.70;0.90;;;;;;;7.66;82.81;100910.59;5032261;28;20460;-71
2022/12/30 09:17:04;;;;;;;13.13;0.97;;;;;;;7.74;82.56;100918.09;5033013;28;20467;-70
2022/12/30 09:19:32;;;;;;;4.93;1.03;;;;;;;7.79;83.14;100925.34;5031956;28;20459;-70
2022/12/30 09:21:59;;;;;;;4.97;0.87;;;;;;;7.79;83.59;100919.97;5032052;28;20578;-70
2022/12/30 09:24:25;;;;;;;5.70;1.00;;;;;;;7.81;82.10;100926.69;5032094;28;20964;-71
2022/12/30 09:26:52;;;;;;;4.10;0.70;;;;;;;7.89;82.54;100921.84;5032604;28;20559;-70
2022/12/30 09:29:18;;;;;;;6.37;1.30;;;;;;;7.93;81.75;100920.22;5030797;28;20459;-70
2022/12/30 09:31:45;;;;;;;5.20;1.33;;;;;;;7.95;81.46;100918.84;5031473;28;20554;-70
2022/12/30 09:34:12;;;;;;;4.00;0.70;;;;;;;7.97;81.48;100919.38;5030241;28;20455;-70
2022/12/30 09:36:40;;;;;;;4.63;0.80;;;;;;;8.01;81.26;100914.22;5031166;28;20479;-70
2022/12/30 09:39:07;;;;;;;9.30;1.50;;;;;;;7.97;82.16;100911.28;5029216;28;20913;-70
2022/12/30 09:44:39;;;;;;;4.60;1.20;;;;;;;8.08;81.50;100915.56;5031216;28;20536;-70
2022/12/30 09:47:14;;;;;;;10.80;2.10;;;;;;;8.15;81.41;100917.16;5032336;28;20467;-70
2022/12/30 09:49:47;;;;;;;12.47;4.10;;;;;;;8.21;80.88;100914.16;5029496;28;20962;-70
2022/12/30 09:52:21;;;;;;;5.33;1.43;;;;;;;8.23;80.65;100911.16;5032789;28;20518;-70
2022/12/30 09:54:53;;;;;;;5.90;1.60;;;;;;;8.28;80.45;100906.56;5028677;28;20462;-70
2022/12/30 10:00:07;;;;;;;11.10;1.40;;;;;;;8.33;79.75;100909.25;5021807;28;20539;-69
2022/12/30 10:02:46;;;;;;;4.70;1.20;;;;;;;8.33;80.67;100909.25;5032035;28;20475;-71
2022/12/30 10:05:14;;;;;;;4.40;0.90;;;;;;;8.31;80.25;100908.69;5030801;28;20455;-70
2022/12/30 10:07:48;;;;;;;6.20;1.17;;;;;;;8.44;79.32;100893.00;5029821;28;20495;-70
2022/12/30 10:10:20;;;;;;;7.10;1.80;;;;;;;8.46;79.73;100896.25;5031191;28;20900;-70
2022/12/30 10:12:58;;;;;;;11.83;2.63;;;;;;;8.46;79.69;100891.66;5034961;28;20487;-70
2022/12/30 10:15:37;;;;;;;7.37;1.87;;;;;;;8.51;78.59;100896.22;5030223;28;20537;-71
2022/12/30 10:18:52;;;;;;;11.70;2.10;;;;;;;8.56;78.33;100893.50;5035520;28;20843;-70
2022/12/30 10:21:27;;;;;;;7.87;1.30;;;;;;;8.61;77.95;100881.84;4974501;28;20466;-70
2022/12/30 10:24:05;;;;;;;5.50;1.10;;;;;;;8.67;77.89;100878.81;4974298;28;20912;-70
2022/12/30 10:26:40;;;;;;;5.80;1.50;;;;;;;8.68;77.68;100887.75;4969254;28;21009;-70
2022/12/30 10:29:14;;;;;;;4.47;0.80;;;;;;;8.66;78.98;100881.81;4962961;28;20549;-70
2022/12/30 10:31:42;;;;;;;5.10;1.63;;;;;;;8.74;78.10;100878.50;4972172;28;20553;-70
2022/12/30 10:34:13;;;;;;;5.07;1.00;;;;;;;8.76;77.83;100877.13;4972750;28;20470;-75
2022/12/30 10:36:47;;;;;;;12.57;1.50;;;;;;;8.88;77.40;100882.19;4974996;28;21056;-72
2022/12/30 10:39:17;;;;;;;7.60;1.07;;;;;;;8.89;76.89;100872.97;4972026;28;20466;-71
2022/12/30 10:42:03;;;;;;;7.63;1.20;;;;;;;8.95;76.17;100876.47;4973109;28;20446;-69
2022/12/30 10:44:38;;;;;;;7.20;1.10;;;;;;;8.97;76.94;100869.69;4974578;28;20549;-69
2022/12/30 10:47:30;;;;;;;6.30;1.37;;;;;;;9.01;76.33;100872.63;4967218;28;20565;-69
2022/12/30 10:50:17;;;;;;;7.70;2.23;;;;;;;9.08;75.85;100870.41;4972080;28;20458;-69
2022/12/30 10:52:43;;;;;;;7.20;1.50;;;;;;;9.19;75.63;100863.00;4995102;28;20458;-68
2022/12/30 10:55:23;;;;;;;6.07;1.10;;;;;;;9.20;74.63;100868.13;5022809;28;20478;-69
2022/12/30 10:57:52;;;;;;;8.37;2.03;;;;;;;9.22;74.10;100865.97;5035297;28;20841;-69
2022/12/30 11:00:21;;;;;;;4.80;1.23;;;;;;;9.28;75.51;100864.81;5033556;28;20459;-70
2022/12/30 11:02:55;;;;;;;4.23;0.80;;;;;;;9.22;74.51;100849.75;5034832;28;20482;-69
2022/12/30 11:05:32;;;;;;;5.27;1.00;;;;;;;9.26;76.20;100844.56;5034348;28;20481;-69
2022/12/30 11:08:00;;;;;;;6.90;1.43;;;;;;;9.32;75.09;100846.94;5030603;28;20492;-68
2022/12/30 11:10:29;;;;;;;4.93;1.00;;;;;;;9.47;75.98;100845.94;5032364;28;20455;-68
2022/12/30 11:15:54;;;;;;;7.77;1.27;;;;;;;9.59;74.17;100840.16;5034280;28;20585;-68
2022/12/30 11:18:26;;;;;;;9.60;2.10;;;;;;;9.65;75.45;100847.13;5034498;28;20550;-68
2022/12/30 11:20:55;;;;;;;13.90;1.20;;;;;;;9.67;73.13;100836.81;5034478;28;20447;-67
2022/12/30 11:23:26;;;;;;;5.60;0.80;;;;;;;9.75;73.36;100838.09;5032967;28;20517;-70
2022/12/30 11:25:54;;;;;;;4.67;0.77;;;;;;;9.81;72.56;100835.00;5034522;28;20531;-72
2022/12/30 11:28:24;;;;;;;7.80;0.80;;;;;;;9.79;72.62;100829.09;5034396;28;20545;-68
2022/12/30 11:31:03;;;;;;;8.73;1.60;;;;;;;9.76;73.48;100834.28;5034134;28;20546;-68
2022/12/30 11:33:33;;;;;;;8.67;1.03;;;;;;;9.76;73.53;100832.38;5033413;28;20454;-68
2022/12/30 11:36:19;;;;;;;21.53;4.57;;;;;;;9.78;72.54;100832.91;5029114;28;20990;-70
2022/12/30 11:38:47;;;;;;;15.83;3.57;;;;;;;9.82;72.44;100835.81;5027039;28;20455;-68
2022/12/30 11:41:27;;;;;;;11.20;2.97;;;;;;;9.89;72.83;100833.56;5025962;28;20446;-70
2022/12/30 11:44:13;;;;;;;12.80;3.87;;;;;;;10.16;71.69;100830.25;5030749;28;20567;-68
2022/12/30 11:46:43;;;;;;;24.00;4.30;;;;;;;10.61;70.36;100830.69;5030951;28;20491;-68
2022/12/30 11:49:22;;;;;;;11.73;2.27;;;;;;;11.06;68.17;100828.31;5026409;28;20461;-68
2022/12/30 11:51:51;;;;;;;9.50;1.83;;;;;;;11.33;65.98;100830.25;5023828;28;20453;-69
2022/12/30 11:54:22;;;;;;;6.90;1.00;;;;;;;11.44;64.64;100830.88;5033864;28;20979;-69
2022/12/30 11:56:55;;;;;;;16.73;2.57;;;;;;;11.98;64.40;100827.38;5023366;28;20993;-69
2022/12/30 11:59:25;;;;;;;8.50;1.40;;;;;;;12.31;60.84;100819.06;5014018;28;20479;-69
2022/12/30 12:01:55;;;;;;;5.60;1.67;;;;;;;12.54;60.59;100815.25;5014361;28;20494;-69
2022/12/30 12:04:38;;;;;;;7.40;1.70;;;;;;;12.78;59.30;100816.84;5014412;28;20432;-69
2022/12/30 12:07:06;;;;;;;6.40;1.40;;;;;;;12.84;59.09;100812.91;5026406;28;20481;-69
2022/12/30 12:09:37;;;;;;;8.10;1.80;;;;;;;12.94;59.28;100817.25;5033658;28;20530;-69
2022/12/30 12:12:11;;;;;;;7.13;1.20;;;;;;;13.07;59.44;100800.06;5034009;28;20450;-69
2022/12/30 12:14:57;;;;;;;5.70;1.60;;;;;;;12.60;58.81;100800.41;5033068;28;20474;-69
2022/12/30 12:17:34;;;;;;;7.20;0.97;;;;;;;12.14;60.73;100794.47;5018791;28;20464;-69
2022/12/30 12:20:06;;;;;;;5.70;1.17;;;;;;;11.91;62.33;100794.41;5014116;28;20459;-69
2022/12/30 12:22:40;;;;;;;6.43;0.90;;;;;;;11.55;63.06;100784.28;5013719;28;20987;-69
2022/12/30 12:25:17;;;;;;;10.57;1.03;;;;;;;11.35;65.03;100780.06;5013949;28;20536;-68
2022/12/30 12:27:45;;;;;;;5.70;0.90;;;;;;;11.16;66.05;100779.34;5031312;28;20462;-69
2022/12/30 12:30:12;;;;;;;6.70;1.80;;;;;;;11.16;65.36;100786.69;5033793;28;20486;-68
2022/12/30 12:33:03;;;;;;;5.07;1.20;;;;;;;11.30;65.68;100780.16;5033530;28;20445;-69
2022/12/30 12:35:40;;;;;;;6.47;1.10;;;;;;;11.24;65.40;100781.34;5032837;28;20457;-69
2022/12/30 12:38:22;;;;;;;7.97;1.70;;;;;;;11.32;64.87;100788.78;5013678;28;20474;-69
2022/12/30 12:41:15;;;;;;;6.77;1.13;;;;;;;11.46;66.02;100767.06;5013665;28;20517;-69
2022/12/30 12:43:53;;;;;;;8.67;1.80;;;;;;;11.53;65.04;100767.50;5013651;28;20511;-69
2022/12/30 12:46:40;;;;;;;5.00;1.17;;;;;;;11.61;64.34;100765.97;5019321;28;20443;-68
2022/12/30 12:49:30;;;;;;;8.13;0.90;;;;;;;11.65;63.45;100760.75;5033057;28;20449;-69
2022/12/30 12:52:13;;;;;;;6.37;1.87;;;;;;;11.63;64.58;100766.47;5033316;28;20436;-68